Time;durP1;ratioP1;P1;durP2;ratioP2;P2;SDS_P1;SDS_P2;PMS_P1;PMS_P2;Temp;Humidity;BMP_temperature;BMP_pressure;BME280_temperature;BME280_humidity;BME280_pressure;Samples;Min_cycle;Max_cycle;Signal;HPM_P1;HPM_P2
2022/06/24 00:01:31;;;;;;;;;25.40;24.80;;;;;22.90;65.02;99225.03;5069628;28;8919;-75
2022/06/24 00:04:00;;;;;;;;;27.25;26.00;;;;;22.90;65.63;99224.16;5070172;28;8925;-74
2022/06/24 00:06:42;;;;;;;;;26.50;25.00;;;;;22.90;65.71;99234.81;5070664;28;8862;-71
2022/06/24 00:09:13;;;;;;;;;28.40;28.20;;;;;22.89;65.35;99233.06;5070478;28;8826;-73
2022/06/24 00:11:43;;;;;;;;;26.20;25.80;;;;;22.86;65.10;99236.78;5070501;28;8850;-73
2022/06/24 00:14:14;;;;;;;;;27.80;27.80;;;;;22.84;65.25;99235.16;5070661;28;8842;-73
2022/06/24 00:16:57;;;;;;;;;25.80;24.80;;;;;22.81;65.16;99237.97;5068313;28;8842;-72
2022/06/24 00:19:27;;;;;;;;;27.80;26.60;;;;;22.80;65.60;99231.81;5068455;28;8843;-74
2022/06/24 00:22:01;;;;;;;;;28.20;25.80;;;;;22.81;65.72;99224.69;5084625;28;8902;-75
2022/06/24 00:24:33;;;;;;;;;27.80;25.40;;;;;22.77;65.73;99221.34;5090889;28;8840;-72
2022/06/24 00:27:02;;;;;;;;;28.25;27.25;;;;;22.69;66.11;99212.94;5070927;28;8893;-74
2022/06/24 00:29:33;;;;;;;;;29.00;27.75;;;;;22.60;66.14;99213.47;5069044;28;8830;-74
2022/06/24 00:32:06;;;;;;;;;26.75;26.25;;;;;22.54;66.81;99210.19;5070399;28;8866;-74
2022/06/24 00:34:37;;;;;;;;;26.75;26.25;;;;;22.50;66.95;99215.75;5034998;28;8988;-75
2022/06/24 00:37:24;;;;;;;;;26.60;26.00;;;;;22.52;66.86;99213.88;5068469;28;8822;-75
2022/06/24 00:39:57;;;;;;;;;27.20;26.60;;;;;22.50;66.72;99213.09;5070298;28;8853;-74
2022/06/24 00:42:26;;;;;;;;;28.20;26.80;;;;;22.49;66.89;99212.22;5070117;28;8861;-73
2022/06/24 00:45:19;;;;;;;;;27.75;27.00;;;;;22.48;67.03;99205.22;5080705;28;8870;-72
2022/06/24 00:47:49;;;;;;;;;28.00;28.00;;;;;22.48;66.99;99209.69;5010802;28;8852;-71
2022/06/24 00:50:22;;;;;;;;;24.00;23.80;;;;;22.48;67.12;99215.00;5012299;28;10009;-71
2022/06/24 00:52:54;;;;;;;;;27.40;27.40;;;;;22.46;66.70;99208.91;5007345;28;8854;-71
2022/06/24 00:55:28;;;;;;;;;28.40;25.20;;;;;22.46;66.84;99212.41;5019437;28;8848;-74
2022/06/24 00:57:57;;;;;;;;;30.00;29.20;;;;;22.44;67.43;99210.78;5027267;28;8872;-71
2022/06/24 01:00:29;;;;;;;;;26.20;25.80;;;;;22.42;66.86;99205.56;5022413;28;9941;-72
2022/06/24 01:02:59;;;;;;;;;21.80;20.80;;;;;22.41;67.08;99192.34;5006459;28;8847;-73
2022/06/24 01:05:30;;;;;;;;;26.80;26.80;;;;;22.39;67.06;99197.75;5005179;28;8844;-75
2022/06/24 01:07:59;;;;;;;;;27.80;25.60;;;;;22.39;67.09;99201.25;4989802;28;8993;-72
2022/06/24 01:10:29;;;;;;;;;24.80;24.40;;;;;22.37;67.32;99197.81;5003076;28;8913;-73
2022/06/24 01:12:58;;;;;;;;;26.40;25.80;;;;;22.38;67.63;99206.66;5004901;28;8987;-74
2022/06/24 01:15:27;;;;;;;;;26.80;25.60;;;;;22.35;67.39;99207.69;5025334;28;8855;-73
2022/06/24 01:17:56;;;;;;;;;25.40;25.40;;;;;22.28;67.55;99213.41;5025063;28;8879;-75
2022/06/24 01:20:25;;;;;;;;;26.60;26.60;;;;;22.25;67.74;99203.81;5010841;28;8858;-73
2022/06/24 01:22:55;;;;;;;;;29.00;27.40;;;;;22.27;67.94;99209.91;5005700;28;9005;-72
2022/06/24 01:25:23;;;;;;;;;26.40;26.40;;;;;22.24;67.94;99203.88;5044550;28;8870;-74
2022/06/24 01:27:52;;;;;;;;;26.60;26.60;;;;;22.25;68.01;99194.94;5063566;28;8874;-73
2022/06/24 01:30:21;;;;;;;;;29.20;26.20;;;;;22.26;68.00;99197.56;5067671;28;8858;-73
2022/06/24 01:32:49;;;;;;;;;28.80;25.80;;;;;22.27;67.90;99191.31;5071613;28;8953;-72
2022/06/24 01:35:18;;;;;;;;;30.00;26.80;;;;;22.26;68.22;99194.06;5072308;28;8862;-72
2022/06/24 01:37:48;;;;;;;;;23.60;23.40;;;;;22.25;67.88;99193.19;5069954;28;8885;-73
2022/06/24 01:40:18;;;;;;;;;27.80;26.40;;;;;22.25;67.55;99197.59;5069342;28;8964;-72
2022/06/24 01:42:46;;;;;;;;;29.20;25.40;;;;;22.21;67.62;99194.25;5069980;28;8828;-73
2022/06/24 01:45:15;;;;;;;;;27.80;27.80;;;;;22.17;68.28;99190.94;5070117;28;8858;-73
2022/06/24 01:47:43;;;;;;;;;27.60;26.60;;;;;22.13;68.03;99191.16;5067372;28;8889;-73
2022/06/24 01:50:12;;;;;;;;;26.80;25.40;;;;;22.00;68.49;99198.91;5085899;28;8858;-76
2022/06/24 01:52:41;;;;;;;;;26.80;25.40;;;;;21.95;68.89;99193.00;5065744;28;8862;-76
2022/06/24 01:55:10;;;;;;;;;25.20;24.80;;;;;21.90;69.18;99198.56;5067308;28;8854;-73
2022/06/24 01:57:40;;;;;;;;;27.60;26.60;;;;;21.89;69.32;99196.84;5067219;28;8846;-75
2022/06/24 02:00:10;;;;;;;;;26.00;26.00;;;;;21.89;69.79;99202.16;5065696;28;8876;-76
2022/06/24 02:02:38;;;;;;;;;27.80;27.80;;;;;21.90;69.62;99197.69;5034568;28;8873;-72
2022/06/24 02:05:13;;;;;;;;;31.80;29.20;;;;;21.91;69.74;99194.97;5069713;28;8846;-73
2022/06/24 02:07:42;;;;;;;;;29.20;28.60;;;;;21.92;69.36;99203.78;5044312;28;8832;-72
2022/06/24 02:15:44;;;;;;;;;33.25;30.75;;;;;21.91;69.92;99208.25;5060942;28;8852;-73
2022/06/24 02:18:13;;;;;;;;;33.50;31.00;;;;;21.90;69.96;99208.31;5064474;28;8860;-72
2022/06/24 02:20:42;;;;;;;;;36.50;31.00;;;;;21.91;70.04;99207.38;5063856;28;8878;-72
2022/06/24 02:23:12;;;;;;;;;33.25;31.25;;;;;21.90;70.03;99203.00;5063374;28;8945;-73
2022/06/24 02:25:41;;;;;;;;;33.20;31.80;;;;;21.90;70.35;99206.50;5063910;28;8852;-71
2022/06/24 02:28:11;;;;;;;;;36.50;34.00;;;;;21.91;70.37;99204.72;5064241;28;8875;-70
2022/06/24 02:30:40;;;;;;;;;33.00;31.00;;;;;21.90;70.47;99209.16;5047574;28;9694;-72
2022/06/24 02:33:10;;;;;;;;;29.75;29.50;;;;;21.90;70.35;99209.16;5042991;28;8858;-73
2022/06/24 02:35:40;;;;;;;;;39.25;34.50;;;;;21.90;70.70;99211.81;5014244;28;8906;-74
2022/06/24 02:38:09;;;;;;;;;34.75;32.25;;;;;21.91;70.98;99205.59;5061971;28;8863;-72
2022/06/24 02:40:47;;;;;;;;;40.00;34.00;;;;;21.90;70.94;99211.81;5047343;28;8848;-73
2022/06/24 02:43:19;;;;;;;;;42.00;35.50;;;;;21.90;71.36;99213.63;5064056;28;8844;-73
2022/06/24 02:45:49;;;;;;;;;35.25;33.00;;;;;21.89;71.36;99207.47;5064440;28;8854;-72
2022/06/24 02:48:21;;;;;;;;;41.75;37.00;;;;;21.83;71.87;99209.56;5066758;28;8870;-72
2022/06/24 02:50:51;;;;;;;;;38.75;35.00;;;;;21.85;71.79;99210.34;5067728;28;8834;-74
2022/06/24 02:53:21;;;;;;;;;48.50;39.50;;;;;21.84;71.85;99217.47;5066873;28;8862;-74
2022/06/24 02:55:52;;;;;;;;;40.75;35.00;;;;;21.84;71.94;99220.13;5066349;28;8854;-72
2022/06/24 02:58:22;;;;;;;;;42.25;35.50;;;;;21.86;72.02;99206.78;5082322;28;8910;-72
2022/06/24 03:00:51;;;;;;;;;43.00;35.50;;;;;21.87;72.19;99212.00;5066665;28;8846;-72
2022/06/24 03:03:21;;;;;;;;;46.00;38.75;;;;;21.73;72.96;99215.34;5067875;28;8901;-72
2022/06/24 03:05:50;;;;;;;;;41.50;36.00;;;;;21.76;73.28;99219.66;5067700;28;8858;-73
2022/06/24 03:08:20;;;;;;;;;41.75;36.25;;;;;21.81;72.63;99220.25;5067981;28;8891;-73
2022/06/24 03:10:49;;;;;;;;;45.75;39.00;;;;;21.83;72.82;99215.72;5067795;28;8985;-74
2022/06/24 03:13:18;;;;;;;;;47.00;39.25;;;;;21.85;73.04;99215.66;5067759;28;10007;-73
2022/06/24 03:15:49;;;;;;;;;44.50;37.50;;;;;21.89;72.74;99220.75;5066814;28;8861;-72
2022/06/24 03:18:18;;;;;;;;;45.25;39.00;;;;;21.92;72.76;99220.56;5083135;28;8846;-71
2022/06/24 03:20:47;;;;;;;;;66.75;51.75;;;;;21.97;72.77;99215.88;5066482;28;8838;-72
2022/06/24 03:23:17;;;;;;;;;62.00;50.75;;;;;22.02;72.34;99212.97;5048074;28;8871;-75
2022/06/24 03:25:45;;;;;;;;;49.50;41.25;;;;;22.07;72.24;99221.56;5067780;28;8838;-73
2022/06/24 03:28:14;;;;;;;;;46.25;38.50;;;;;22.13;72.03;99215.06;5067577;28;8856;-72
2022/06/24 03:30:43;;;;;;;;;46.00;39.00;;;;;22.17;72.04;99217.50;5066466;28;8935;-72
2022/06/24 03:33:13;;;;;;;;;45.00;38.25;;;;;22.25;71.62;99216.19;5067602;28;8878;-72
2022/06/24 03:35:41;;;;;;;;;45.25;38.25;;;;;22.27;71.35;99217.88;5071253;28;9604;-74
2022/06/24 03:38:10;;;;;;;;;43.75;37.25;;;;;22.35;71.08;99222.78;5076406;28;8862;-73
2022/06/24 03:40:38;;;;;;;;;46.00;39.50;;;;;22.40;70.51;99223.38;5091428;28;8852;-72
2022/06/24 03:43:07;;;;;;;;;44.75;38.75;;;;;22.46;70.37;99225.72;5091195;28;8932;-74
2022/06/24 03:45:35;;;;;;;;;44.50;38.50;;;;;22.52;70.18;99229.81;5091661;28;8840;-74
2022/06/24 03:48:05;;;;;;;;;46.25;40.50;;;;;22.49;70.19;99220.19;5091345;28;8855;-71
2022/06/24 03:50:35;;;;;;;;;43.50;37.75;;;;;22.55;70.32;99221.66;5072860;28;8856;-72
2022/06/24 03:53:03;;;;;;;;;41.75;35.50;;;;;22.65;69.96;99230.00;5091371;28;9617;-71
2022/06/24 03:55:32;;;;;;;;;44.50;38.00;;;;;22.66;70.01;99229.06;5073048;28;8904;-73
2022/06/24 03:58:01;;;;;;;;;49.00;41.25;;;;;22.75;70.15;99232.06;5070755;28;9643;-74
2022/06/24 04:00:29;;;;;;;;;50.75;42.50;;;;;22.83;69.53;99231.63;5070651;28;8988;-73
2022/06/24 04:02:58;;;;;;;;;43.25;38.25;;;;;22.95;69.26;99233.59;5070775;28;8858;-72
2022/06/24 04:05:27;;;;;;;;;39.75;35.25;;;;;23.06;68.96;99238.34;5069213;28;9624;-74
2022/06/24 04:07:58;;;;;;;;;39.50;34.50;;;;;23.18;68.49;99235.94;5070609;28;8866;-73
2022/06/24 04:10:26;;;;;;;;;48.00;41.25;;;;;23.26;68.12;99233.69;5070289;28;8834;-72
2022/06/24 04:12:55;;;;;;;;;40.25;35.75;;;;;23.34;67.62;99231.44;5070615;28;8850;-74
2022/06/24 04:15:23;;;;;;;;;44.00;37.75;;;;;23.45;67.36;99233.47;5070388;28;8858;-73
2022/06/24 04:17:52;;;;;;;;;52.00;42.25;;;;;23.54;67.01;99235.59;5070167;28;8859;-74
2022/06/24 04:20:21;;;;;;;;;50.75;43.50;;;;;23.63;66.83;99235.06;5069333;28;8826;-76
2022/06/24 04:22:49;;;;;;;;;47.00;40.25;;;;;23.73;66.32;99233.53;5070533;28;8854;-73
2022/06/24 04:25:19;;;;;;;;;41.50;35.50;;;;;23.87;65.91;99235.41;5071629;28;8966;-74
2022/06/24 04:27:48;;;;;;;;;47.25;39.25;;;;;23.98;65.63;99237.41;5068254;28;8846;-73
2022/06/24 04:30:16;;;;;;;;;52.25;43.00;;;;;24.10;65.27;99239.34;5049821;28;8832;-74
2022/06/24 04:32:45;;;;;;;;;47.00;39.75;;;;;24.24;64.94;99238.47;5084298;28;8855;-75
2022/06/24 04:35:13;;;;;;;;;62.00;48.75;;;;;24.30;64.36;99245.25;5070812;28;8854;-73
2022/06/24 04:37:42;;;;;;;;;49.50;42.25;;;;;24.42;64.13;99240.94;5070192;28;8862;-73
2022/06/24 04:40:12;;;;;;;;;45.00;39.00;;;;;24.49;63.50;99243.13;5068720;28;8862;-73
2022/06/24 04:42:42;;;;;;;;;43.50;37.25;;;;;24.55;63.31;99247.25;5068852;28;8834;-73
2022/06/24 04:45:11;;;;;;;;;46.25;39.25;;;;;24.54;63.18;99245.56;5068002;28;8898;-72
2022/06/24 04:47:40;;;;;;;;;39.50;34.75;;;;;24.69;62.84;99252.56;5068610;28;8866;-73
2022/06/24 04:50:10;;;;;;;;;43.50;37.00;;;;;24.69;62.42;99249.91;5068796;28;8935;-73
2022/06/24 04:52:40;;;;;;;;;41.75;36.50;;;;;24.77;62.43;99243.25;5069064;28;8915;-72
2022/06/24 04:55:08;;;;;;;;;41.00;35.50;;;;;24.96;61.64;99249.09;5088147;28;8906;-71
2022/06/24 04:57:39;;;;;;;;;44.00;36.75;;;;;25.19;61.39;99252.06;5074030;28;8854;-74
2022/06/24 05:00:10;;;;;;;;;41.50;36.25;;;;;25.28;60.82;99247.00;5068228;28;8877;-73
2022/06/24 05:02:41;;;;;;;;;45.00;36.75;;;;;25.31;60.31;99250.44;5081553;28;8883;-72
2022/06/24 05:05:10;;;;;;;;;40.25;36.25;;;;;24.67;62.27;99253.63;5067726;28;8908;-73
2022/06/24 05:07:40;;;;;;;;;45.50;38.50;;;;;24.76;62.27;99252.19;5068174;28;8866;-74
2022/06/24 05:10:10;;;;;;;;;40.75;35.25;;;;;24.89;62.00;99253.94;5068098;28;10052;-72
2022/06/24 05:12:38;;;;;;;;;43.50;36.25;;;;;24.85;62.03;99259.59;5067949;28;8973;-73
2022/06/24 05:15:10;;;;;;;;;41.00;36.75;;;;;24.84;62.22;99257.88;5066778;28;8876;-72
2022/06/24 05:17:38;;;;;;;;;51.25;42.25;;;;;24.75;62.91;99258.47;5064489;28;9001;-70
2022/06/24 05:20:08;;;;;;;;;45.75;38.75;;;;;24.92;62.52;99260.91;5067916;28;8839;-73
2022/06/24 05:22:42;;;;;;;;;41.75;36.25;;;;;25.10;62.66;99253.50;5052040;28;9621;-75
2022/06/24 05:25:10;;;;;;;;;43.50;37.50;;;;;25.25;61.67;99251.69;5089058;28;8840;-72
2022/06/24 05:27:39;;;;;;;;;42.00;35.75;;;;;24.75;62.15;99259.34;5089131;28;8866;-74
2022/06/24 05:30:11;;;;;;;;;39.25;35.00;;;;;24.68;63.03;99260.66;5088930;28;8866;-71
2022/06/24 05:32:39;;;;;;;;;36.50;33.00;;;;;24.87;62.47;99263.88;5068022;28;9766;-72
2022/06/24 05:35:13;;;;;;;;;37.00;34.00;;;;;24.98;62.29;99260.50;5073098;28;8863;-72
2022/06/24 05:37:41;;;;;;;;;33.25;31.50;;;;;24.71;62.34;99265.81;5067567;28;8846;-73
2022/06/24 05:40:11;;;;;;;;;37.00;32.75;;;;;24.30;63.42;99271.88;5067093;28;8976;-72
2022/06/24 05:42:40;;;;;;;;;35.00;32.00;;;;;24.30;63.73;99275.41;5066780;28;8858;-74
2022/06/24 05:45:11;;;;;;;;;31.40;28.80;;;;;24.55;61.93;99265.91;5069498;28;8862;-77
2022/06/24 05:47:39;;;;;;;;;34.50;31.00;;;;;24.85;61.46;99264.94;5067538;28;9733;-77
2022/06/24 05:50:09;;;;;;;;;36.00;31.50;;;;;24.98;61.16;99265.00;5066282;28;9611;-74
2022/06/24 05:55:23;;;;;;;;;39.00;34.75;;;;;25.63;59.17;99270.50;5066104;28;9801;-76
2022/06/24 05:57:52;;;;;;;;;36.25;33.00;;;;;25.07;60.31;99270.59;5066076;28;8852;-75
2022/06/24 06:00:22;;;;;;;;;31.00;30.25;;;;;24.92;60.32;99278.75;5048233;28;8850;-75
2022/06/24 06:02:51;;;;;;;;;20.80;20.80;;;;;25.02;56.64;99266.50;5066100;28;8839;-73
2022/06/24 06:05:19;;;;;;;;;27.20;26.00;;;;;25.21;57.05;99269.69;5080823;28;8842;-75
2022/06/24 06:07:48;;;;;;;;;28.00;26.75;;;;;25.38;57.66;99275.75;5041733;28;9973;-75
2022/06/24 06:10:17;;;;;;;;;28.00;26.80;;;;;25.14;57.34;99275.53;5043344;28;8866;-74
2022/06/24 06:12:45;;;;;;;;;30.50;30.00;;;;;25.00;59.30;99273.75;5043207;28;9594;-75
2022/06/24 06:15:14;;;;;;;;;35.25;32.50;;;;;25.29;60.17;99275.44;5026516;28;9042;-75
2022/06/24 06:17:44;;;;;;;;;31.25;30.50;;;;;25.71;59.55;99269.13;5043108;28;8959;-74
2022/06/24 06:20:13;;;;;;;;;30.75;30.25;;;;;26.07;58.29;99268.47;5026948;28;8863;-73
2022/06/24 06:22:41;;;;;;;;;29.50;28.50;;;;;26.38;56.53;99269.84;5045009;28;9014;-76
2022/06/24 06:25:10;;;;;;;;;30.75;27.50;;;;;26.63;55.75;99269.00;5011077;28;8844;-76
2022/06/24 06:27:38;;;;;;;;;32.00;29.50;;;;;26.83;54.34;99270.22;4963450;28;8902;-76
2022/06/24 06:30:09;;;;;;;;;31.50;29.75;;;;;26.80;53.10;99272.25;5027862;28;9037;-74
2022/06/24 06:32:37;;;;;;;;;33.00;31.00;;;;;26.49;53.33;99273.59;5012391;28;9588;-75
2022/06/24 06:35:09;;;;;;;;;29.00;26.50;;;;;26.70;52.98;99265.88;5042518;28;8936;-73
2022/06/24 06:37:37;;;;;;;;;31.50;29.75;;;;;26.82;53.16;99260.50;5044681;28;8905;-76
2022/06/24 06:40:08;;;;;;;;;24.40;23.80;;;;;27.01;53.10;99268.03;5067275;28;8842;-74
2022/06/24 06:42:37;;;;;;;;;25.00;23.60;;;;;27.26;52.21;99274.28;5066866;28;8865;-75
2022/06/24 06:45:06;;;;;;;;;25.80;25.80;;;;;27.50;51.26;99273.41;5074854;28;9638;-76
2022/06/24 06:47:35;;;;;;;;;27.00;26.00;;;;;27.68;51.10;99269.34;5072239;28;8877;-75
2022/06/24 06:50:05;;;;;;;;;27.40;26.40;;;;;27.91;50.16;99274.81;5067254;28;8905;-73
2022/06/24 06:52:41;;;;;;;;;26.75;25.00;;;;;28.08;49.92;99271.69;5084500;28;8928;-74
2022/06/24 06:55:10;;;;;;;;;25.50;25.50;;;;;28.29;49.75;99277.19;5051390;28;8859;-73
2022/06/24 06:57:38;;;;;;;;;21.40;21.40;;;;;28.28;47.30;99277.28;5066433;28;8844;-75
2022/06/24 07:00:09;;;;;;;;;22.80;22.80;;;;;28.38;46.40;99272.94;5086175;28;8908;-76
2022/06/24 07:02:38;;;;;;;;;26.60;25.80;;;;;27.55;47.52;99282.81;5083824;28;8838;-73
2022/06/24 07:05:14;;;;;;;;;24.40;22.40;;;;;27.83;48.32;99272.69;5064969;28;8900;-73
2022/06/24 07:07:44;;;;;;;;;23.00;22.40;;;;;28.04;48.10;99280.09;5084056;28;8901;-75
2022/06/24 07:10:13;;;;;;;;;23.20;19.60;;;;;28.23;47.11;99274.16;5087590;28;8845;-73
2022/06/24 07:12:41;;;;;;;;;24.60;24.00;;;;;28.25;46.00;99273.03;5071361;28;8865;-73
2022/06/24 07:15:14;;;;;;;;;23.60;22.00;;;;;28.48;46.25;99270.38;5048086;28;9735;-74
2022/06/24 07:17:43;;;;;;;;;20.40;19.80;;;;;28.66;45.03;99263.56;5032209;28;8846;-72
2022/06/24 07:20:12;;;;;;;;;22.40;22.40;;;;;28.79;44.49;99263.44;5047707;28;8974;-72
2022/06/24 07:22:41;;;;;;;;;23.60;22.40;;;;;28.92;44.43;99257.91;5048147;28;8877;-75
2022/06/24 07:25:11;;;;;;;;;23.60;23.00;;;;;28.90;43.50;99270.59;5047102;28;8858;-75
2022/06/24 07:27:40;;;;;;;;;24.40;24.40;;;;;28.62;44.20;99255.88;5047410;28;8858;-72
2022/06/24 07:30:09;;;;;;;;;24.80;24.80;;;;;28.34;44.65;99247.34;5031142;28;9013;-74
2022/06/24 07:32:38;;;;;;;;;22.40;20.80;;;;;27.88;45.80;99257.09;5044720;28;9033;-73
2022/06/24 07:35:08;;;;;;;;;37.50;33.00;;;;;28.07;46.31;99251.22;5049838;28;8847;-76
2022/06/24 07:37:56;;;;;;;;;25.00;24.75;;;;;28.30;45.68;99254.78;5004346;28;8838;-74
2022/06/24 07:40:26;;;;;;;;;27.00;26.60;;;;;28.55;45.30;99251.00;5003767;28;9736;-75
2022/06/24 07:42:54;;;;;;;;;27.20;25.20;;;;;28.71;44.21;99247.09;5012110;28;8875;-73
2022/06/24 07:45:23;;;;;;;;;27.00;27.00;;;;;28.92;43.34;99248.06;5032674;28;8859;-73
2022/06/24 07:47:52;;;;;;;;;25.75;25.00;;;;;29.07;43.25;99242.38;5046239;28;8856;-75
2022/06/24 07:50:20;;;;;;;;;24.25;23.25;;;;;29.21;43.55;99244.81;5086937;28;8872;-74
2022/06/24 07:52:49;;;;;;;;;26.25;24.75;;;;;29.29;42.76;99236.13;5070538;28;8846;-73
2022/06/24 07:58:06;;;;;;;;;23.75;23.75;;;;;29.41;41.74;99239.59;5089941;28;8835;-73
2022/06/24 08:00:35;;;;;;;;;27.00;26.75;;;;;29.32;41.41;99235.84;5053296;28;8979;-72
2022/06/24 08:03:05;;;;;;;;;27.40;23.60;;;;;29.39;41.16;99234.34;5104312;28;8867;-76
2022/06/24 08:05:34;;;;;;;;;25.25;25.25;;;;;29.51;41.48;99244.09;5083397;28;9744;-73
2022/06/24 08:08:02;;;;;;;;;26.50;26.50;;;;;29.41;42.43;99236.94;5089232;28;8887;-73
2022/06/24 08:10:31;;;;;;;;;23.80;23.80;;;;;29.17;42.35;99240.69;5079168;28;8980;-73
2022/06/24 08:13:00;;;;;;;;;27.00;26.50;;;;;28.92;43.13;99237.31;5059483;28;8950;-77
2022/06/24 08:15:30;;;;;;;;;33.50;30.25;;;;;29.07;43.00;99226.28;5076983;28;8855;-73
2022/06/24 08:17:58;;;;;;;;;28.00;28.00;;;;;28.59;43.83;99230.16;5075306;28;9615;-74
2022/06/24 08:20:27;;;;;;;;;30.25;27.50;;;;;28.37;43.99;99231.84;5090430;28;8859;-75
2022/06/24 08:22:57;;;;;;;;;23.80;23.40;;;;;28.75;44.11;99233.31;5088867;28;8848;-74
2022/06/24 08:25:26;;;;;;;;;24.40;23.20;;;;;29.02;42.79;99225.78;5093214;28;8871;-75
2022/06/24 08:27:55;;;;;;;;;28.00;25.25;;;;;29.17;42.42;99240.69;5074743;28;8865;-73
2022/06/24 08:30:23;;;;;;;;;22.25;21.75;;;;;29.35;42.10;99233.75;5072227;28;8839;-74
2022/06/24 08:32:53;;;;;;;;;26.75;26.50;;;;;29.50;41.37;99241.53;5089602;28;8961;-74
2022/06/24 08:35:22;;;;;;;;;26.50;26.00;;;;;29.68;40.91;99245.34;5075816;28;8862;-74
2022/06/24 08:37:58;;;;;;;;;24.00;22.80;;;;;29.80;40.72;99243.47;5089055;28;8848;-74
2022/06/24 08:40:29;;;;;;;;;28.25;28.25;;;;;29.61;39.00;99243.31;5088550;28;8852;-76
2022/06/24 08:42:59;;;;;;;;;31.50;29.00;;;;;28.89;40.50;99245.59;5089310;28;9690;-74
2022/06/24 08:45:29;;;;;;;;;32.50;30.50;;;;;28.31;42.35;99244.88;5089509;28;8863;-74
2022/06/24 08:47:59;;;;;;;;;30.25;28.75;;;;;28.08;42.03;99249.38;5089198;28;8852;-75
2022/06/24 08:50:27;;;;;;;;;27.50;25.00;;;;;27.98;42.31;99254.63;5092860;28;8860;-74
2022/06/24 08:52:57;;;;;;;;;25.25;24.25;;;;;27.97;41.03;99253.72;5087937;28;8940;-75
2022/06/24 08:55:26;;;;;;;;;28.00;27.50;;;;;28.12;41.39;99248.16;5089444;28;8902;-76
2022/06/24 08:57:54;;;;;;;;;24.40;24.40;;;;;28.43;41.05;99245.72;5089678;28;8910;-75
2022/06/24 09:00:23;;;;;;;;;26.50;26.50;;;;;28.60;40.87;99244.41;5079168;28;8868;-74
2022/06/24 09:02:52;;;;;;;;;24.20;23.60;;;;;28.75;39.81;99245.84;5088066;28;8898;-75
2022/06/24 09:05:22;;;;;;;;;26.25;24.50;;;;;28.90;38.57;99247.31;5088033;28;8823;-75
2022/06/24 09:07:58;;;;;;;;;22.80;22.80;;;;;29.11;37.13;99244.72;5089409;28;8843;-75
2022/06/24 09:10:30;;;;;;;;;23.00;22.00;;;;;29.26;36.61;99247.13;5087845;28;8867;-75
2022/06/24 09:12:59;;;;;;;;;23.20;23.20;;;;;29.40;36.63;99241.44;5089809;28;8844;-76
2022/06/24 09:15:27;;;;;;;;;20.00;18.00;;;;;29.52;36.81;99239.56;5083879;28;8835;-74
2022/06/24 09:17:56;;;;;;;;;22.25;21.00;;;;;29.65;36.45;99236.69;5086713;28;8839;-76
2022/06/24 09:20:29;;;;;;;;;21.75;21.75;;;;;29.58;35.68;99236.34;5089993;28;8852;-74
2022/06/24 09:23:04;;;;;;;;;20.50;19.75;;;;;29.71;36.10;99241.53;5087901;28;8856;-76
2022/06/24 09:25:44;;;;;;;;;21.60;21.60;;;;;29.82;35.70;99244.19;5088834;28;8891;-74
2022/06/24 09:28:22;;;;;;;;;18.40;18.40;;;;;29.97;35.27;99249.25;5087756;28;8891;-74
2022/06/24 09:31:02;;;;;;;;;21.80;20.20;;;;;29.99;33.76;99245.44;5069827;28;8856;-76
2022/06/24 09:33:37;;;;;;;;;20.00;20.00;;;;;30.17;33.07;99250.19;5085631;28;8870;-75
2022/06/24 09:36:13;;;;;;;;;18.60;18.60;;;;;30.26;33.12;99250.25;5103901;28;8846;-74
2022/06/24 09:38:54;;;;;;;;;16.80;16.40;;;;;29.63;33.62;99244.03;5088362;28;8852;-74
2022/06/24 09:41:25;;;;;;;;;26.50;24.50;;;;;29.34;33.87;99242.81;5087253;28;8836;-74
2022/06/24 09:43:54;;;;;;;;;18.40;18.40;;;;;29.47;34.79;99241.78;5088042;28;8988;-76
2022/06/24 09:46:24;;;;;;;;;15.60;14.80;;;;;29.61;33.93;99235.25;5088309;28;8840;-75
2022/06/24 09:49:02;;;;;;;;;18.40;17.60;;;;;29.36;32.84;99237.31;5086602;28;8872;-75
2022/06/24 09:51:35;;;;;;;;;17.60;16.00;;;;;29.37;32.57;99241.69;5080939;28;8896;-76
2022/06/24 09:54:04;;;;;;;;;15.60;15.40;;;;;29.57;32.36;99242.72;5085439;28;8957;-75
2022/06/24 09:56:34;;;;;;;;;17.80;15.00;;;;;29.75;31.34;99237.63;5084631;28;8843;-76
2022/06/24 10:01:50;;;;;;;;;20.60;19.20;;;;;28.95;32.04;99231.66;5074082;28;8943;-79
2022/06/24 10:04:25;;;;;;;;;18.40;18.00;;;;;29.25;32.67;99232.84;5072212;28;8839;-78
2022/06/24 10:06:57;;;;;;;;;17.40;17.40;;;;;29.43;32.93;99230.44;5080595;28;8851;-78
2022/06/24 10:09:32;;;;;;;;;18.20;18.20;;;;;29.58;33.32;99232.81;5088011;28;8893;-78
2022/06/24 10:12:02;;;;;;;;;11.80;11.80;;;;;29.60;28.06;99229.00;5069756;28;8875;-79
2022/06/24 10:14:31;;;;;;;;;9.60;9.60;;;;;29.71;27.29;99228.09;5088187;28;8959;-77
2022/06/24 10:17:01;;;;;;;;;12.40;11.00;;;;;29.88;26.98;99230.22;5069885;28;8872;-77
2022/06/24 10:19:31;;;;;;;;;9.80;9.80;;;;;30.03;26.86;99229.91;5081480;28;8847;-77
2022/06/24 10:22:02;;;;;;;;;10.40;10.40;;;;;29.90;25.67;99235.47;5049601;28;8871;-79
2022/06/24 10:24:42;;;;;;;;;10.20;10.20;;;;;29.89;26.15;99233.78;5102105;28;8843;-79
2022/06/24 10:27:11;;;;;;;;;8.80;8.80;;;;;29.98;26.20;99234.81;5084140;28;8951;-80
2022/06/24 10:29:39;;;;;;;;;11.60;9.80;;;;;30.17;25.66;99244.81;5063313;28;8967;-70
2022/06/24 10:32:08;;;;;;;;;5.60;5.60;;;;;30.26;25.84;99244.03;5078804;28;8886;-69
2022/06/24 10:34:41;;;;;;;;;8.00;8.00;;;;;30.33;24.51;99244.38;5087534;28;8857;-75
2022/06/24 10:37:29;;;;;;;;;10.60;9.00;;;;;30.43;24.47;99256.88;5087788;28;8867;-71
2022/06/24 10:40:01;;;;;;;;;10.40;10.40;;;;;30.35;22.73;99245.94;5087687;28;8852;-73
2022/06/24 10:42:33;;;;;;;;;8.60;8.60;;;;;30.40;24.28;99240.16;5082506;28;8850;-70
2022/06/24 10:45:09;;;;;;;;;12.80;11.80;;;;;30.36;24.73;99234.22;5099771;28;8826;-69
2022/06/24 10:47:40;;;;;;;;;10.40;10.40;;;;;30.55;25.74;99232.56;5067542;28;8978;-71
2022/06/24 10:50:14;;;;;;;;;11.60;11.60;;;;;30.75;25.46;99237.00;5081619;28;8850;-69
2022/06/24 10:53:00;;;;;;;;;14.20;13.00;;;;;30.97;25.44;99233.28;5087124;28;8836;-70
2022/06/24 10:55:39;;;;;;;;;12.80;11.60;;;;;31.04;23.87;99228.16;5076502;28;8940;-69
2022/06/24 10:58:11;;;;;;;;;9.00;9.00;;;;;31.09;24.75;99221.38;5070184;28;8984;-70
2022/06/24 11:00:51;;;;;;;;;12.60;12.60;;;;;31.17;24.78;99223.34;5066039;28;8941;-69
2022/06/24 11:03:41;;;;;;;;;12.00;10.60;;;;;31.34;24.31;99213.72;5065006;28;8887;-70
2022/06/24 11:06:11;;;;;;;;;12.60;11.60;;;;;31.46;24.22;99206.38;5086857;28;8878;-74
2022/06/24 11:08:41;;;;;;;;;11.40;11.40;;;;;31.47;24.31;99205.38;5087227;28;8859;-69
2022/06/24 11:11:09;;;;;;;;;11.80;11.80;;;;;31.67;24.71;99190.06;5082466;28;8870;-74
2022/06/24 11:13:41;;;;;;;;;11.20;11.20;;;;;31.47;24.01;99203.56;5079280;28;8844;-70
2022/06/24 11:16:10;;;;;;;;;10.40;10.40;;;;;31.71;24.15;99196.84;5084247;28;8879;-74
2022/06/24 11:18:39;;;;;;;;;12.60;11.60;;;;;31.90;24.02;99182.47;5083872;28;9611;-74
2022/06/24 11:21:17;;;;;;;;;12.40;10.40;;;;;31.98;24.15;99179.88;5077247;28;8848;-73
2022/06/24 11:23:48;;;;;;;;;13.20;13.20;;;;;32.16;23.85;99180.00;5086342;28;8863;-76
2022/06/24 11:26:20;;;;;;;;;10.00;10.00;;;;;32.20;23.40;99169.75;5080134;28;8960;-74
2022/06/24 11:28:56;;;;;;;;;8.40;8.40;;;;;32.42;22.94;99165.78;5081405;28;8842;-79
2022/06/24 11:31:26;;;;;;;;;11.20;11.20;;;;;32.32;22.08;99159.63;5066693;28;8850;-79
2022/06/24 11:34:10;;;;;;;;;14.20;13.20;;;;;32.57;23.15;99158.06;5110099;28;8970;-77
2022/06/24 11:36:42;;;;;;;;;19.50;18.50;;;;;32.85;23.36;99156.19;5071151;28;9016;-77
2022/06/24 11:39:13;;;;;;;;;12.60;10.60;;;;;33.12;22.84;99152.59;5066499;28;8870;-77
2022/06/24 11:41:50;;;;;;;;;13.00;13.00;;;;;33.35;23.63;99152.97;5066624;28;8846;-76
2022/06/24 11:44:34;;;;;;;;;12.00;12.00;;;;;33.46;22.01;99141.06;5083947;28;8990;-75
2022/06/24 11:47:10;;;;;;;;;15.25;15.25;;;;;33.54;23.12;99141.09;5083555;28;8885;-74
2022/06/24 11:49:45;;;;;;;;;11.75;11.75;;;;;33.91;23.00;99142.69;5071051;28;8848;-78
2022/06/24 11:52:14;;;;;;;;;13.00;12.50;;;;;34.16;22.86;99135.59;5067369;28;8858;-76
2022/06/24 11:54:44;;;;;;;;;12.00;12.00;;;;;34.27;22.99;99139.00;5075529;28;8870;-76
2022/06/24 11:57:13;;;;;;;;;11.50;10.50;;;;;34.20;23.43;99138.84;5088800;28;8890;-77